METAR Data
IDs: Format: Raw Decoded Include TAF

Data at: 1116 UTC 16 Feb 2019

PABE 161053Z 18012KT 10SM SCT070 M02/M03 A2988 RMK SLP121 T10221028 $ VIA AUTODIAL
PABE 160953Z 18012KT 10SM FEW060 OVC090 M02/M03 A2987 RMK AO2 SLP117 T10221028 $
PABE 160853Z 18012KT 10SM FEW080 M02/M03 A2985 RMK SLP110 T10221028 400111067 53025 $ VIA AUTODIAL
PABE 160753Z 18012KT 10SM CLR M02/M02 A2982 RMK AO2 SLP099 T10171022 $
PABE 160653Z 19019KT 10SM SCT041 M01/M01 A2979 RMK AO2 SLP089 T10061011 $
PABE 160634Z 19018KT 10SM SCT011 00/M01 A2978 RMK AO2 T00001011 $
PABE 160553Z 18016KT 10SM OVC011 00/M01 A2977 RMK SLP085 60009 T00001011 10011 21011 53012 $ VIA AUTODIAL
PABE 160533Z 18015KT 10SM BKN012 BKN017 00/M02 A2977 RMK T00001017 $ VIA AUTODIAL
PABE 160453Z 19017KT 10SM FEW013 BKN027 M01/M02 A2975 RMK AO2 UPB19E28SNE19 SLP077 P0000 T10061017 $
PABE 160433Z 18017KT 10SM SCT007 OVC013 M01/M01 A2975 RMK AO2 UPB19E28SNE19 P0000 T10061011 $
PABE 160353Z 18019KT 3SM -SN BR BKN007 OVC011 M01/M01 A2974 RMK SLP073 P0002 T10061011 $ VIA AUTODIAL
PABE 160330Z 17017KT 3SM -SN BR OVC007 M01/M01 A2974 RMK AO2 P0001 T10061006 $
PABE 160253Z 14011KT 3/4SM R19R/4500VP6000FT -SN BR BKN007 OVC012 M01/M01 A2973 RMK AO2 SLP069 P0003 60007 T10111011 56003 $
PABE 160153Z 13012KT 3/4SM R19R/4500VP6000FT -SN BR SCT007 OVC014 M01/M01 A2973 RMK AO2 SLP070 P0003 T10061011 $
PABE 160149Z 13013KT 3/4SM R19R/4500VP6000FT -SN BR SCT007 OVC014 M01/M01 A2973 RMK AO2 P0002 $
PABE 160109Z 14015KT 1SM R19R/3500VP6000FT -SN BR VV016 M01/M01 A2973 RMK AO2 P0000 T10061011 $
PABE 160053Z 13017KT 1/2SM R19R/2600V5000FT SN FZFG VV012 M01/M02 A2974 RMK AO2 PK WND 14032/0017 SNB09 SLP073 P0001 T10111017 $
PABE 160031Z 15021KT 1/2SM R19R/2400V4500FT -SN BLSN VV014 M01/M02 A2975 RMK AO2 PK WND 14032/0017 SNB09 P0000 T10111017
PABE 160028Z 15022G30KT 1/2SM R19R/2600V4500FT -SN BLSN VV016 M01/M02 A2975 RMK AO2 PK WND 14032/0017 SNB09 P0000 T10111017
PABE 152353Z 13012G18KT 10SM BKN038 OVC048 M01/M02 A2975 RMK AO2 SNE18 SLP077 P0000 60000 T10061022 11006 21067 58004
PABE 152324Z 10011KT 10SM BKN037 BKN047 OVC060 M01/M03 A2973 RMK AO2 SNE18 P0000 T10111028
PABE 152309Z 10012KT 4SM R19R/5000VP6000FT -SN BR BKN024 BKN043 OVC050 M01/M03 A2975 RMK AO2 P0000 T10111033
PABE 152253Z 11011KT 1SM R19R/5500VP6000FT -SN OVC008 M01/M06 A2976 RMK AO2 SNB50 SLP080 P0000 T10111056
PABE 152251Z 11012KT 2SM -SN BKN024 OVC046 M01/M06 A2977 RMK AO2 SNB50 P0000
PABE 152153Z 09010KT 10SM OVC100 M02/M07 A2976 RMK AO2 SLP079 T10221072
PABE 152053Z 08013KT 10SM SCT110 M04/M08 A2976 RMK SLP080 T10441083 58034 VIA AUTODIAL
PABE 151953Z 07008KT 10SM OVC120 M07/M08 A2980 RMK AO2 SLP095 T10671083
PABE 151853Z 07009KT 10SM BKN120 M06/M08 A2984 RMK SLP108 T10611078 VIA AUTODIAL
PABE 151753Z 07009KT 10SM SCT110 M06/M07 A2986 RMK AO2 SLP114 60000 T10611067 11022 21061 56025
PABE 151653Z 06009KT 10SM CLR M05/M06 A2987 RMK SLP118 T10501061 VIA AUTODIAL
PABE 151553Z 06008KT 10SM CLR M04/M06 A2989 RMK SLP125 T10391056 VIA AUTODIAL
PABE 151539Z AUTO 06007KT 10SM SCT020 M03/M05 A2990 RMK T10331050 TSNO VIA AUTODIAL
PABE 151453Z AUTO 10006KT 10SM OVC020 M02/M04 A2994 RMK SLP140 60000 T10221039 58020 TSNO VIA AUTODIAL
PABE 151353Z 11005KT 10SM OVC020 M03/M05 A2996 RMK AO2 SLP149 T10331050
PABE 151253Z 11006KT 10SM FEW006 OVC022 M04/M05 A2998 RMK AO2 SNB20E43 SLP155 P0000 T10391050
PABE 151153Z 13006KT 6SM BR OVC007 M02/M04 A3000 RMK SLP160 70011 T10221039 11017 21033 50001 VIA AUTODIAL
PABE 151053Z 18007KT 10SM OVC006 M02/M03 A3000 RMK SLP161 T10221028 VIA AUTODIAL
PABE 150953Z 17009KT 10SM BKN007 OVC023 M02/M02 A2999 RMK SLP159 T10171022 VIA AUTODIAL
PABE 150950Z 17008KT 9SM BKN006 OVC023 M02/M03 A2999 RMK VIA AUTODIAL
PABE 150915Z 18009KT 10SM SCT007 OVC028 M02/M03 A2999 RMK AO2 T10221033
PABE 150853Z 18010KT 10SM BKN007 OVC015 M02/M03 A2998 RMK SLP156 T10221033 410171083 53012 VIA AUTODIAL
PABE 150753Z 17012KT 10SM OVC005 M03/M04 A2997 RMK SLP153 T10281039 VIA AUTODIAL
PABE 150653Z 16008KT 10SM OVC007 M03/M04 A2996 RMK SLP147 T10281039 VIA AUTODIAL
PABE 150553Z 19011KT 10SM BKN009 OVC014 M02/M03 A2995 RMK SLP145 60006 T10171028 11017 21050 51012 VIA AUTODIAL
PABE 150551Z 19011KT 10SM BKN009 OVC014 M02/M03 A2995 RMK VIA AUTODIAL
PABE 150500Z 19013KT 10SM BKN012 OVC018 M02/M03 A2994 RMK T10171028 VIA AUTODIAL
PABE 150453Z 19014KT 10SM SCT011 OVC018 M02/M03 A2993 RMK SLP139 T10171033 VIA AUTODIAL
PABE 150433Z 19015KT 10SM SCT010 OVC022 M02/M03 A2992 RMK T10221033 VIA AUTODIAL
PABE 150425Z 19018KT 10SM BKN010 OVC022 M02/M03 A2992 RMK T10221033 VIA AUTODIAL
PABE 150403Z 19018KT 10SM FEW010 SCT015 OVC022 M02/M03 A2992 RMK AO2 T10221033
PABE 150353Z 19017KT 10SM BKN014 OVC022 M02/M04 A2992 RMK AO2 SLP133 T10221039
PABE 150253Z 18013KT 10SM OVC015 M02/M04 A2991 RMK AO2 SLP132 60006 T10221044 58008
PABE 150153Z 15014KT 10SM FEW013 OVC018 M04/M05 A2992 RMK AO2 SNE0056 SLP135 P0000 T10391050
PABE 150141Z 15014KT 10SM OVC017 M04/M05 A2993 RMK AO2 SNE0056 P0000 T10391050
PABE 150122Z 15011KT 10SM FEW007 BKN014 OVC019 M04/M05 A2993 RMK AO2 SNE0056 P0000 T10391050
PABE 150058Z 14010KT 9SM FEW008 BKN016 OVC021 M04/M05 A2993 RMK AO2 SNE56 P0000 T10441050
PABE 150053Z 13010KT 5SM -SN BR BKN012 OVC021 M04/M05 A2993 RMK AO2 SLP138 P0006 T10441050
PABE 150049Z 12010KT 2SM -SN BR BKN012 OVC019 M04/M05 A2993 RMK AO2 P0006
PABE 150040Z 13009KT 1/2SM R19R/2000VP6000FT -SN FZFG BKN011 OVC018 M04/M05 A2993 RMK AO2 P0005 T10441050
PABE 142353Z 10010KT 1/4SM R19R/2200V3000FT SN FZFG VV008 M04/M06 A2994 RMK AO2 SLP140 P0004 60005 T10441056 11044 21078 56017
PABE 142349Z 11010KT 1/4SM R19R/2200V2800FT SN FZFG VV008 M04/M06 A2994 RMK AO2 P0004